Time;durP1;ratioP1;P1;durP2;ratioP2;P2;SDS_P1;SDS_P2;PMS_P1;PMS_P2;Temp;Humidity;BMP_temperature;BMP_pressure;BME280_temperature;BME280_humidity;BME280_pressure;Samples;Min_cycle;Max_cycle;Signal;HPM_P1;HPM_P2
2023/01/14 00:01:06;;;;;;;6.70;2.77;;;;;;;;;;5074442;28;20255;-86
2023/01/14 00:03:34;;;;;;;5.30;2.37;;;;;;;;;;5074145;28;20231;-86
2023/01/14 00:06:04;;;;;;;13.83;3.83;;;;;;;;;;5074060;28;20230;-85
2023/01/14 00:08:32;;;;;;;10.63;6.37;;;;;;;;;;5075452;28;20190;-86
2023/01/14 00:11:04;;;;;;;13.87;2.30;;;;;;;;;;5075398;28;20199;-86
2023/01/14 00:13:33;;;;;;;2.80;2.03;;;;;;;;;;5074095;28;20249;-85
2023/01/14 00:16:03;;;;;;;3.03;2.10;;;;;;;;;;5075096;28;20247;-86
2023/01/14 00:18:32;;;;;;;4.30;2.37;;;;;;;;;;5074024;28;20267;-86
2023/01/14 00:21:02;;;;;;;7.93;2.93;;;;;;;;;;5074673;28;20225;-85
2023/01/14 00:23:32;;;;;;;8.20;2.60;;;;;;;;;;5073956;28;20218;-86
2023/01/14 00:26:05;;;;;;;7.90;2.17;;;;;;;;;;5075138;28;20217;-85
2023/01/14 00:28:33;;;;;;;12.20;3.97;;;;;;;;;;5074094;28;20248;-86
2023/01/14 00:31:06;;;;;;;13.57;3.63;;;;;;;;;;5074923;28;20191;-86
2023/01/14 00:33:35;;;;;;;17.23;4.23;;;;;;;;;;5073548;28;20194;-86
2023/01/14 00:36:04;;;;;;;1.97;1.77;;;;;;;;;;5073471;28;20226;-85
2023/01/14 00:38:34;;;;;;;13.03;3.13;;;;;;;;;;5073858;28;20198;-86
2023/01/14 00:41:03;;;;;;;3.43;1.83;;;;;;;;;;5074784;28;20308;-85
2023/01/14 00:43:34;;;;;;;3.67;2.30;;;;;;;;;;5074841;28;20200;-85
2023/01/14 00:46:02;;;;;;;8.20;2.27;;;;;;;;;;5073268;28;20188;-85
2023/01/14 00:48:31;;;;;;;12.93;5.10;;;;;;;;;;5073554;28;20260;-86
2023/01/14 00:50:59;;;;;;;9.80;2.97;;;;;;;;;;5073365;28;20194;-85
2023/01/14 00:53:28;;;;;;;36.73;3.97;;;;;;;;;;5074456;28;20198;-86
2023/01/14 00:55:58;;;;;;;28.47;5.87;;;;;;;;;;5073460;28;20230;-86
2023/01/14 00:58:27;;;;;;;12.17;3.10;;;;;;;;;;5073496;28;20193;-85
2023/01/14 01:00:56;;;;;;;6.80;3.57;;;;;;;;;;5073457;28;20202;-85
2023/01/14 01:03:24;;;;;;;6.40;1.90;;;;;;;;;;5073491;28;20200;-85
2023/01/14 01:05:53;;;;;;;5.60;2.97;;;;;;;;;;5073102;28;20259;-86
2023/01/14 01:08:22;;;;;;;7.03;1.77;;;;;;;;;;5073620;28;20227;-86
2023/01/14 01:10:52;;;;;;;7.53;2.30;;;;;;;;;;5073154;28;20233;-85
2023/01/14 01:13:23;;;;;;;13.20;3.50;;;;;;;;;;5073135;28;20237;-85
2023/01/14 01:15:53;;;;;;;6.47;2.13;;;;;;;;;;5073324;28;20267;-86
2023/01/14 01:18:22;;;;;;;5.73;2.60;;;;;;;;;;5073400;28;20198;-86
2023/01/14 01:20:50;;;;;;;9.90;2.13;;;;;;;;;;5073274;28;20205;-85
2023/01/14 01:23:19;;;;;;;10.03;2.63;;;;;;;;;;5073062;28;20201;-86
2023/01/14 01:25:47;;;;;;;6.73;3.20;;;;;;;;;;5072883;28;20202;-85
2023/01/14 01:28:15;;;;;;;12.53;3.47;;;;;;;;;;5073169;28;20215;-86
2023/01/14 01:30:45;;;;;;;11.90;3.33;;;;;;;;;;5073008;28;20202;-85
2023/01/14 01:33:13;;;;;;;5.50;2.63;;;;;;;;;;5074112;28;20249;-86
2023/01/14 01:35:42;;;;;;;4.03;2.07;;;;;;;;;;5073136;28;20228;-85
2023/01/14 01:38:10;;;;;;;12.63;3.97;;;;;;;;;;5072995;28;20224;-86
2023/01/14 01:40:38;;;;;;;6.07;2.50;;;;;;;;;;5072702;28;20202;-86
2023/01/14 01:43:10;;;;;;;2.77;2.27;;;;;;;;;;5072856;28;20204;-86
2023/01/14 01:45:43;;;;;;;2.60;2.13;;;;;;;;;;5072740;28;20256;-85
2023/01/14 01:48:14;;;;;;;5.20;3.03;;;;;;;;;;5072825;28;20210;-86
2023/01/14 01:50:43;;;;;;;4.77;2.30;;;;;;;;;;5073140;28;20207;-86
2023/01/14 01:53:12;;;;;;;6.73;3.20;;;;;;;;;;5073017;28;20201;-86
2023/01/14 01:55:41;;;;;;;3.07;2.13;;;;;;;;;;5073024;28;20260;-86
2023/01/14 01:58:10;;;;;;;6.87;2.90;;;;;;;;;;5072951;28;20214;-86
2023/01/14 02:00:39;;;;;;;6.60;2.20;;;;;;;;;;5073106;28;20238;-85
2023/01/14 02:03:10;;;;;;;4.23;2.17;;;;;;;;;;5072647;28;20302;-86
2023/01/14 02:05:40;;;;;;;18.00;3.03;;;;;;;;;;5074201;28;20429;-86
2023/01/14 02:08:08;;;;;;;7.23;3.07;;;;;;;;;;5076775;28;20203;-85
2023/01/14 02:10:49;;;;;;;8.43;2.90;;;;;;;;;;5077533;28;20191;-86
2023/01/14 02:13:24;;;;;;;5.40;2.20;;;;;;;;;;5076409;28;20260;-85
2023/01/14 02:15:58;;;;;;;14.07;4.27;;;;;;;;;;5076181;28;20199;-85
2023/01/14 02:18:37;;;;;;;8.73;3.00;;;;;;;;;;5077642;28;20218;-85
2023/01/14 02:21:11;;;;;;;6.83;2.07;;;;;;;;;;5077626;28;20198;-85
2023/01/14 02:23:58;;;;;;;5.83;1.93;;;;;;;;;;5077077;28;20289;-86
2023/01/14 02:26:56;;;;;;;6.97;1.93;;;;;;;;;;5075744;28;20204;-85
2023/01/14 02:29:42;;;;;;;1.73;1.63;;;;;;;;;;5076183;28;20197;-85
2023/01/14 02:32:14;;;;;;;9.57;2.83;;;;;;;;;;5076456;28;20197;-86
2023/01/14 02:34:46;;;;;;;5.93;2.17;;;;;;;;;;5076026;28;20198;-86
2023/01/14 02:37:16;;;;;;;10.87;3.37;;;;;;;;;;5076004;28;20214;-86
2023/01/14 02:39:49;;;;;;;12.70;3.70;;;;;;;;;;5076167;28;20194;-86
2023/01/14 02:45:12;;;;;;;18.93;5.07;;;;;;;;;;5077041;28;20198;-85
2023/01/14 02:47:43;;;;;;;17.23;4.50;;;;;;;;;;5076777;28;20259;-86
2023/01/14 02:50:13;;;;;;;11.43;3.93;;;;;;;;;;5075950;28;20259;-86
2023/01/14 02:52:41;;;;;;;5.87;2.87;;;;;;;;;;5075832;28;20190;-86
2023/01/14 02:55:24;;;;;;;12.87;4.73;;;;;;;;;;5075502;28;20256;-85
2023/01/14 02:57:57;;;;;;;17.77;4.23;;;;;;;;;;5076611;28;20217;-86
2023/01/14 03:00:28;;;;;;;8.83;2.93;;;;;;;;;;5076691;28;20241;-86
2023/01/14 03:03:04;;;;;;;11.73;2.67;;;;;;;;;;5075705;28;20194;-86
2023/01/14 03:05:46;;;;;;;11.10;3.37;;;;;;;;;;5075381;28;20217;-86
2023/01/14 03:08:20;;;;;;;4.43;2.70;;;;;;;;;;5075372;28;20205;-86
2023/01/14 03:10:52;;;;;;;4.07;1.83;;;;;;;;;;5075880;28;20296;-86
2023/01/14 03:13:23;;;;;;;5.93;2.00;;;;;;;;;;5075274;28;20303;-86
2023/01/14 03:15:54;;;;;;;17.53;3.27;;;;;;;;;;5076602;28;20204;-86
2023/01/14 03:18:25;;;;;;;14.13;4.47;;;;;;;;;;5075308;28;20218;-86
2023/01/14 03:20:55;;;;;;;23.07;5.53;;;;;;;;;;5075169;28;20217;-86
2023/01/14 03:23:25;;;;;;;13.93;4.93;;;;;;;;;;5075245;28;20201;-86
2023/01/14 03:25:54;;;;;;;13.77;3.63;;;;;;;;;;5076373;28;20212;-85
2023/01/14 03:28:24;;;;;;;20.33;6.27;;;;;;;;;;5074992;28;20194;-86
2023/01/14 03:30:57;;;;;;;8.50;3.30;;;;;;;;;;5075189;28;20260;-86
2023/01/14 03:33:26;;;;;;;15.00;4.70;;;;;;;;;;5075334;28;20205;-86
2023/01/14 03:35:56;;;;;;;20.70;5.13;;;;;;;;;;5075176;28;20202;-86
2023/01/14 03:38:27;;;;;;;18.77;4.83;;;;;;;;;;5076228;28;20213;-86
2023/01/14 03:40:56;;;;;;;13.83;4.27;;;;;;;;;;5074985;28;20208;-86
2023/01/14 03:43:28;;;;;;;23.70;5.73;;;;;;;;;;5074476;28;20293;-86
2023/01/14 03:45:58;;;;;;;16.07;4.30;;;;;;;;;;5075492;28;20280;-86
2023/01/14 03:48:27;;;;;;;19.90;5.40;;;;;;;;;;5074764;28;20193;-86
2023/01/14 03:50:59;;;;;;;19.97;5.90;;;;;;;;;;5074902;28;20228;-86
2023/01/14 03:53:30;;;;;;;20.83;5.70;;;;;;;;;;5075231;28;20205;-86
2023/01/14 03:56:03;;;;;;;16.13;4.17;;;;;;;;;;5074783;28;20202;-85
2023/01/14 03:58:36;;;;;;;16.00;6.73;;;;;;;;;;5074493;28;20221;-86
2023/01/14 04:01:08;;;;;;;19.10;4.93;;;;;;;;;;5074476;28;20296;-86
2023/01/14 04:03:37;;;;;;;16.00;5.40;;;;;;;;;;5074340;28;20210;-85
2023/01/14 04:06:06;;;;;;;22.63;6.43;;;;;;;;;;5074788;28;20224;-86
2023/01/14 04:08:34;;;;;;;17.20;5.43;;;;;;;;;;5074675;28;20292;-86
2023/01/14 04:11:02;;;;;;;17.23;4.60;;;;;;;;;;5074399;28;20202;-86
2023/01/14 04:16:18;;;;;;;17.47;5.27;;;;;;;;;;5074451;28;20189;-86
2023/01/14 04:18:46;;;;;;;14.13;4.70;;;;;;;;;;5075139;28;20229;-85
2023/01/14 04:21:15;;;;;;;29.17;5.67;;;;;;;;;;5075427;28;20263;-86
2023/01/14 04:23:43;;;;;;;17.77;6.43;;;;;;;;;;5073910;28;20197;-86
2023/01/14 04:26:11;;;;;;;17.37;5.67;;;;;;;;;;5074985;28;20219;-86
2023/01/14 04:28:40;;;;;;;17.13;6.67;;;;;;;;;;5073638;28;20221;-86
2023/01/14 04:31:08;;;;;;;20.60;6.77;;;;;;;;;;5073375;28;20296;-86
2023/01/14 04:33:38;;;;;;;24.27;6.07;;;;;;;;;;5073829;28;20225;-86
2023/01/14 04:36:07;;;;;;;19.77;5.03;;;;;;;;;;5074015;28;20225;-86
2023/01/14 04:38:35;;;;;;;19.50;5.17;;;;;;;;;;5073331;28;20226;-86
2023/01/14 04:41:03;;;;;;;15.10;4.73;;;;;;;;;;5074899;28;20228;-86
2023/01/14 04:43:31;;;;;;;11.27;4.73;;;;;;;;;;5073857;28;20190;-86
2023/01/14 04:45:59;;;;;;;19.60;4.50;;;;;;;;;;5073736;28;20193;-86
2023/01/14 04:48:27;;;;;;;17.17;5.47;;;;;;;;;;5074893;28;20207;-86
2023/01/14 04:51:01;;;;;;;14.00;3.20;;;;;;;;;;5073466;28;20292;-86
2023/01/14 04:53:30;;;;;;;16.07;4.33;;;;;;;;;;5074214;28;20271;-86
2023/01/14 04:55:58;;;;;;;21.90;7.23;;;;;;;;;;5073239;28;20257;-85
2023/01/14 04:58:26;;;;;;;21.33;6.83;;;;;;;;;;5073255;28;20221;-86
2023/01/14 05:00:55;;;;;;;23.10;5.93;;;;;;;;;;5073377;28;20205;-86
2023/01/14 05:03:23;;;;;;;18.93;5.77;;;;;;;;;;5074832;28;20213;-86
2023/01/14 05:05:52;;;;;;;19.77;6.13;;;;;;;;;;5073170;28;20257;-86
2023/01/14 05:08:21;;;;;;;4.80;3.00;;;;;;;;;;5074177;28;20217;-86
2023/01/14 05:10:50;;;;;;;24.47;5.87;;;;;;;;;;5073478;28;20213;-86
2023/01/14 05:13:18;;;;;;;24.17;6.50;;;;;;;;;;5073300;28;20241;-86
2023/01/14 05:15:47;;;;;;;13.97;5.40;;;;;;;;;;5073553;28;20201;-86
2023/01/14 05:18:16;;;;;;;18.67;7.47;;;;;;;;;;5073026;28;20217;-86
2023/01/14 05:20:45;;;;;;;28.27;8.40;;;;;;;;;;5073123;28;20205;-85
2023/01/14 05:23:15;;;;;;;30.57;7.77;;;;;;;;;;5073546;28;20307;-86
2023/01/14 05:25:45;;;;;;;24.33;8.30;;;;;;;;;;5074107;28;20255;-86
2023/01/14 05:28:14;;;;;;;22.20;8.33;;;;;;;;;;5073244;28;20203;-86
2023/01/14 05:30:43;;;;;;;22.80;7.83;;;;;;;;;;5074266;28;20289;-86
2023/01/14 05:33:12;;;;;;;15.53;6.40;;;;;;;;;;5073221;28;20236;-86
2023/01/14 05:35:40;;;;;;;20.53;9.03;;;;;;;;;;5072994;28;20239;-86
2023/01/14 05:38:09;;;;;;;25.00;8.10;;;;;;;;;;5073160;28;20221;-86
2023/01/14 05:40:38;;;;;;;23.80;9.70;;;;;;;;;;5073087;28;20236;-86
2023/01/14 05:45:54;;;;;;;22.93;9.50;;;;;;;;;;5077076;28;20189;-86
2023/01/14 05:48:23;;;;;;;26.70;9.77;;;;;;;;;;5077123;28;20414;-85
2023/01/14 05:50:52;;;;;;;33.40;9.07;;;;;;;;;;5078118;28;20284;-86
2023/01/14 05:53:21;;;;;;;33.73;10.20;;;;;;;;;;5076723;28;20292;-86
2023/01/14 05:55:49;;;;;;;21.00;8.10;;;;;;;;;;5076744;28;20201;-85
2023/01/14 05:58:19;;;;;;;42.07;11.10;;;;;;;;;;5076626;28;20206;-86
2023/01/14 06:06:25;;;;;;;30.13;10.10;;;;;;;;;;5076457;28;20218;-86
2023/01/14 06:08:55;;;;;;;37.97;9.57;;;;;;;;;;5076773;28;20205;-86
2023/01/14 06:11:24;;;;;;;22.67;9.13;;;;;;;;;;5076953;28;20208;-86
2023/01/14 06:13:56;;;;;;;31.97;10.30;;;;;;;;;;5076012;28;20520;-85
2023/01/14 06:16:26;;;;;;;25.07;9.80;;;;;;;;;;5076200;28;20269;-86
2023/01/14 06:18:55;;;;;;;26.07;8.67;;;;;;;;;;5076345;28;20228;-86
2023/01/14 06:21:27;;;;;;;22.00;4.97;;;;;;;;;;5076233;28;20292;-86
2023/01/14 06:23:56;;;;;;;19.53;7.97;;;;;;;;;;5076402;28;20201;-86
2023/01/14 06:26:27;;;;;;;24.17;8.57;;;;;;;;;;5076384;28;20205;-86
2023/01/14 06:29:01;;;;;;;17.97;6.33;;;;;;;;;;5075943;28;20198;-86
2023/01/14 06:31:30;;;;;;;32.50;8.90;;;;;;;;;;5076202;28;20201;-86
2023/01/14 06:33:59;;;;;;;20.23;8.67;;;;;;;;;;5075873;28;20203;-86
2023/01/14 06:36:27;;;;;;;16.10;6.87;;;;;;;;;;5076228;28;20226;-86
2023/01/14 06:38:56;;;;;;;26.73;8.43;;;;;;;;;;5075801;28;20226;-85
2023/01/14 06:41:24;;;;;;;18.47;6.20;;;;;;;;;;5076014;28;20198;-86
2023/01/14 06:43:53;;;;;;;19.07;6.27;;;;;;;;;;5075871;28;20289;-86
2023/01/14 06:46:22;;;;;;;27.13;8.37;;;;;;;;;;5075606;28;20224;-86
2023/01/14 06:48:51;;;;;;;21.53;7.13;;;;;;;;;;5075745;28;20236;-86
2023/01/14 06:51:20;;;;;;;19.43;6.80;;;;;;;;;;5075766;28;20210;-86
2023/01/14 06:53:49;;;;;;;27.40;8.10;;;;;;;;;;5074474;28;20228;-86
2023/01/14 06:56:18;;;;;;;31.90;8.73;;;;;;;;;;5075620;28;20225;-86
2023/01/14 06:58:48;;;;;;;20.83;7.50;;;;;;;;;;5075325;28;20224;-86
2023/01/14 07:01:17;;;;;;;22.27;7.07;;;;;;;;;;5075582;28;20200;-85
2023/01/14 07:03:47;;;;;;;24.63;7.77;;;;;;;;;;5075566;28;20202;-86
2023/01/14 07:06:15;;;;;;;27.33;7.73;;;;;;;;;;5075077;28;20278;-86
2023/01/14 07:08:44;;;;;;;22.33;6.10;;;;;;;;;;5075304;28;20209;-86
2023/01/14 07:11:13;;;;;;;20.30;7.07;;;;;;;;;;5076107;28;20198;-86
2023/01/14 07:13:41;;;;;;;26.93;9.53;;;;;;;;;;5075242;28;20233;-86
2023/01/14 07:16:09;;;;;;;25.33;7.50;;;;;;;;;;5075073;28;20206;-86
2023/01/14 07:18:38;;;;;;;24.17;9.17;;;;;;;;;;5075938;28;20193;-86
2023/01/14 07:21:07;;;;;;;25.67;10.87;;;;;;;;;;5075190;28;20308;-86
2023/01/14 07:23:36;;;;;;;28.07;7.93;;;;;;;;;;5074860;28;20269;-86
2023/01/14 07:26:04;;;;;;;20.63;9.00;;;;;;;;;;5075460;28;20202;-86
2023/01/14 07:28:34;;;;;;;24.53;8.07;;;;;;;;;;5074866;28;20205;-86
2023/01/14 07:31:05;;;;;;;27.20;8.10;;;;;;;;;;5075105;28;20198;-86
2023/01/14 07:33:33;;;;;;;19.77;6.07;;;;;;;;;;5074922;28;20292;-86
2023/01/14 07:36:02;;;;;;;30.50;8.90;;;;;;;;;;5075703;28;20193;-86
2023/01/14 07:38:31;;;;;;;20.67;8.07;;;;;;;;;;5074768;28;20201;-86
2023/01/14 07:41:00;;;;;;;16.93;4.43;;;;;;;;;;5074347;28;20240;-86
2023/01/14 07:43:28;;;;;;;21.03;7.40;;;;;;;;;;5074730;28;20270;-86
2023/01/14 07:46:00;;;;;;;29.70;6.07;;;;;;;;;;5074836;28;20198;-86
2023/01/14 07:48:29;;;;;;;15.93;7.07;;;;;;;;;;5074857;28;20243;-85
2023/01/14 07:50:57;;;;;;;24.57;8.07;;;;;;;;;;5074519;28;20240;-86
2023/01/14 07:53:26;;;;;;;25.27;9.67;;;;;;;;;;5074409;28;20212;-85
2023/01/14 07:55:55;;;;;;;18.73;6.93;;;;;;;;;;5074752;28;20247;-85
2023/01/14 07:58:24;;;;;;;20.27;8.43;;;;;;;;;;5075490;28;20201;-86
2023/01/14 08:00:53;;;;;;;21.57;9.93;;;;;;;;;;5074357;28;20221;-86
2023/01/14 08:03:21;;;;;;;15.77;7.30;;;;;;;;;;5074381;28;20243;-86
2023/01/14 08:05:50;;;;;;;17.03;7.97;;;;;;;;;;5075812;28;20214;-86
2023/01/14 08:08:18;;;;;;;18.33;10.00;;;;;;;;;;5074271;28;20204;-86
2023/01/14 08:10:47;;;;;;;18.30;10.87;;;;;;;;;;5073976;28;20204;-86
2023/01/14 08:13:16;;;;;;;23.53;11.37;;;;;;;;;;5074114;28;20245;-86
2023/01/14 08:15:45;;;;;;;19.47;9.93;;;;;;;;;;5073487;28;20209;-86
2023/01/14 08:18:13;;;;;;;18.10;12.17;;;;;;;;;;5074015;28;20208;-86
2023/01/14 08:20:41;;;;;;;16.57;10.23;;;;;;;;;;5073994;28;20344;-86
2023/01/14 08:23:10;;;;;;;21.90;10.87;;;;;;;;;;5074311;28;20197;-86
2023/01/14 08:25:38;;;;;;;17.47;10.43;;;;;;;;;;5073625;28;20292;-86
2023/01/14 08:28:06;;;;;;;15.43;8.43;;;;;;;;;;5074017;28;20239;-86
2023/01/14 08:30:36;;;;;;;8.80;7.03;;;;;;;;;;5074346;28;20224;-86
2023/01/14 08:33:04;;;;;;;13.90;10.23;;;;;;;;;;5073915;28;20302;-86
2023/01/14 08:35:33;;;;;;;13.77;7.83;;;;;;;;;;5074298;28;20232;-86
2023/01/14 08:38:01;;;;;;;11.90;8.17;;;;;;;;;;5073469;28;20201;-86
2023/01/14 08:40:29;;;;;;;10.67;8.43;;;;;;;;;;5074285;28;20221;-86
2023/01/14 08:42:58;;;;;;;16.40;8.40;;;;;;;;;;5073509;28;20227;-86
2023/01/14 08:45:26;;;;;;;10.87;9.13;;;;;;;;;;5074010;28;20205;-85
2023/01/14 08:47:56;;;;;;;14.83;10.00;;;;;;;;;;5073643;28;20209;-86
2023/01/14 08:50:25;;;;;;;10.60;7.57;;;;;;;;;;5073641;28;20208;-86
2023/01/14 08:52:53;;;;;;;15.83;11.00;;;;;;;;;;5074574;28;20209;-86
2023/01/14 08:55:22;;;;;;;10.93;8.87;;;;;;;;;;5073259;28;20208;-86
2023/01/14 08:57:50;;;;;;;13.27;8.27;;;;;;;;;;5073269;28;20251;-86
2023/01/14 09:00:18;;;;;;;15.03;10.93;;;;;;;;;;5073059;28;20260;-86
2023/01/14 09:02:47;;;;;;;9.63;5.73;;;;;;;;;;5073350;28;20205;-86
2023/01/14 09:05:17;;;;;;;10.57;7.23;;;;;;;;;;5073025;28;20243;-86
2023/01/14 09:18:45;;;;;;;12.83;10.13;;;;;;;;;;5041143;28;20217;-86
2023/01/14 09:21:15;;;;;;;10.23;8.20;;;;;;;;;;5072963;28;20215;-86
2023/01/14 09:23:43;;;;;;;12.70;10.40;;;;;;;;;;5073064;28;20200;-86
2023/01/14 09:26:11;;;;;;;10.10;5.80;;;;;;;;;;5072969;28;20221;-86
2023/01/14 09:28:39;;;;;;;10.10;8.50;;;;;;;;;;5073979;28;20229;-86
2023/01/14 09:31:08;;;;;;;10.00;8.90;;;;;;;;;;5072566;28;20220;-86
2023/01/14 09:33:36;;;;;;;12.33;9.53;;;;;;;;;;5073091;28;20234;-86
2023/01/14 09:36:05;;;;;;;11.70;8.43;;;;;;;;;;5072606;28;20206;-86
2023/01/14 09:38:34;;;;;;;13.23;9.83;;;;;;;;;;5072684;28;20229;-86
2023/01/14 09:41:03;;;;;;;11.60;9.50;;;;;;;;;;5073103;28;20259;-86
2023/01/14 09:43:39;;;;;;;7.60;6.93;;;;;;;;;;5073121;28;20199;-86
2023/01/14 09:46:10;;;;;;;9.90;8.33;;;;;;;;;;5072874;28;20217;-86
2023/01/14 09:48:38;;;;;;;12.70;9.30;;;;;;;;;;5072593;28;20205;-86
2023/01/14 09:51:11;;;;;;;9.23;8.13;;;;;;;;;;5072496;28;20207;-86
2023/01/14 09:53:52;;;;;;;9.43;6.10;;;;;;;;;;5072748;28;20243;-86
2023/01/14 09:56:23;;;;;;;7.00;5.03;;;;;;;;;;5072735;28;20194;-86
2023/01/14 09:58:54;;;;;;;8.03;5.33;;;;;;;;;;5072493;28;20197;-86
2023/01/14 10:01:26;;;;;;;10.30;6.80;;;;;;;;;;5072305;28;20275;-86
2023/01/14 10:04:00;;;;;;;9.03;5.20;;;;;;;;;;5072546;28;20201;-86
2023/01/14 10:06:29;;;;;;;6.90;4.97;;;;;;;;;;5072753;28;20221;-86
2023/01/14 10:09:00;;;;;;;8.70;5.13;;;;;;;;;;5073293;28;20189;-86
2023/01/14 10:11:31;;;;;;;8.27;6.70;;;;;;;;;;5072335;28;20218;-86
2023/01/14 10:14:03;;;;;;;5.80;4.80;;;;;;;;;;5071963;28;20235;-85
2023/01/14 10:16:34;;;;;;;5.73;4.37;;;;;;;;;;5072481;28;20300;-86
2023/01/14 10:19:06;;;;;;;6.00;4.07;;;;;;;;;;5072747;28;20193;-86
2023/01/14 10:21:38;;;;;;;9.83;5.63;;;;;;;;;;5072348;28;20248;-86
2023/01/14 10:24:11;;;;;;;6.83;5.10;;;;;;;;;;5072072;28;20237;-86
2023/01/14 10:26:40;;;;;;;7.57;5.93;;;;;;;;;;5072804;28;20186;-86
2023/01/14 10:29:13;;;;;;;6.63;3.97;;;;;;;;;;5075980;28;20213;-86
2023/01/14 10:31:42;;;;;;;4.57;3.20;;;;;;;;;;5075712;28;20189;-86
2023/01/14 10:34:12;;;;;;;6.33;4.37;;;;;;;;;;5076185;28;20198;-86
2023/01/14 10:36:40;;;;;;;7.07;4.80;;;;;;;;;;5075643;28;20209;-86
2023/01/14 10:39:13;;;;;;;5.93;3.80;;;;;;;;;;5076049;28;20205;-86
2023/01/14 10:41:50;;;;;;;6.47;4.67;;;;;;;;;;5075774;28;20239;-86
2023/01/14 10:44:22;;;;;;;8.53;5.53;;;;;;;;;;5077370;28;20197;-87
2023/01/14 10:46:51;;;;;;;6.50;4.73;;;;;;;;;;5076859;28;20198;-86
2023/01/14 10:49:21;;;;;;;5.37;3.13;;;;;;;;;;5075615;28;20201;-87
2023/01/14 10:51:50;;;;;;;6.37;3.83;;;;;;;;;;5075679;28;20232;-86
2023/01/14 10:54:21;;;;;;;4.80;3.77;;;;;;;;;;5075700;28;20263;-86
2023/01/14 10:56:51;;;;;;;4.93;4.40;;;;;;;;;;5075500;28;20194;-86
2023/01/14 10:59:37;;;;;;;7.00;3.60;;;;;;;;;;5075673;28;20213;-86
2023/01/14 11:02:06;;;;;;;5.97;4.30;;;;;;;;;;5076293;28;20304;-86
2023/01/14 11:04:49;;;;;;;5.80;4.07;;;;;;;;;;5076484;28;20202;-86
2023/01/14 11:07:22;;;;;;;7.53;3.77;;;;;;;;;;5075168;28;20213;-86
2023/01/14 11:09:52;;;;;;;7.60;3.53;;;;;;;;;;5075361;28;20207;-86
2023/01/14 11:12:28;;;;;;;7.27;3.47;;;;;;;;;;5075045;28;20206;-86
2023/01/14 11:14:56;;;;;;;6.70;3.70;;;;;;;;;;5075386;28;20244;-86
2023/01/14 11:17:26;;;;;;;3.97;3.37;;;;;;;;;;5075588;28;20206;-85
2023/01/14 11:20:14;;;;;;;5.33;3.27;;;;;;;;;;5075138;28;20230;-86
2023/01/14 11:22:42;;;;;;;3.43;2.80;;;;;;;;;;5074709;28;20221;-86
2023/01/14 11:25:22;;;;;;;2.83;2.17;;;;;;;;;;5075199;28;20268;-86
2023/01/14 11:27:51;;;;;;;5.77;2.63;;;;;;;;;;5074843;28;20238;-86
2023/01/14 11:30:20;;;;;;;4.13;2.60;;;;;;;;;;5075883;28;20198;-86
2023/01/14 11:32:49;;;;;;;3.30;2.37;;;;;;;;;;5074578;28;20195;-86
2023/01/14 11:35:19;;;;;;;3.13;2.17;;;;;;;;;;5074922;28;20238;-86
2023/01/14 11:37:48;;;;;;;1.67;1.57;;;;;;;;;;5074864;28;20218;-86
2023/01/14 11:40:24;;;;;;;3.23;2.80;;;;;;;;;;5075362;28;20204;-86
2023/01/14 11:42:52;;;;;;;2.37;1.90;;;;;;;;;;5075676;28;20236;-86
2023/01/14 11:45:22;;;;;;;3.13;2.20;;;;;;;;;;5074757;28;20290;-86
2023/01/14 11:47:52;;;;;;;4.33;2.10;;;;;;;;;;5075437;28;20245;-86
2023/01/14 11:50:22;;;;;;;3.17;1.63;;;;;;;;;;5074820;28;20275;-86
2023/01/14 11:53:02;;;;;;;3.63;2.20;;;;;;;;;;5074386;28;20253;-86
2023/01/14 11:55:33;;;;;;;1.30;1.20;;;;;;;;;;5074339;28;20205;-86
2023/01/14 11:58:05;;;;;;;1.77;1.67;;;;;;;;;;5074918;28;20227;-86
2023/01/14 12:00:42;;;;;;;3.83;1.73;;;;;;;;;;5074307;28;20241;-86
2023/01/14 12:03:14;;;;;;;3.03;2.00;;;;;;;;;;5074650;28;20273;-86
2023/01/14 12:05:44;;;;;;;3.00;1.80;;;;;;;;;;5075212;28;20258;-86
2023/01/14 12:08:15;;;;;;;5.37;2.77;;;;;;;;;;5074107;28;20191;-86
2023/01/14 12:10:47;;;;;;;2.03;1.70;;;;;;;;;;5075333;28;20225;-86
2023/01/14 12:19:09;;;;;;;2.47;1.70;;;;;;;;;;4997032;28;20247;-86
2023/01/14 12:21:38;;;;;;;3.13;1.60;;;;;;;;;;5050409;28;20212;-86
2023/01/14 12:24:12;;;;;;;2.50;1.80;;;;;;;;;;5073848;28;20290;-86
2023/01/14 12:26:44;;;;;;;2.60;1.63;;;;;;;;;;5073771;28;20223;-86
2023/01/14 12:29:16;;;;;;;2.90;1.40;;;;;;;;;;5074083;28;20261;-85
2023/01/14 12:31:47;;;;;;;1.30;1.20;;;;;;;;;;5073587;28;20209;-86
2023/01/14 12:34:19;;;;;;;1.50;1.40;;;;;;;;;;5073651;28;20295;-86
2023/01/14 12:36:51;;;;;;;3.13;1.23;;;;;;;;;;5074005;28;20266;-86
2023/01/14 12:48:06;;;;;;;2.30;1.67;;;;;;;;;;5074495;28;20282;-86
2023/01/14 12:50:35;;;;;;;1.77;1.23;;;;;;;;;;5072526;28;20197;-86
2023/01/14 12:53:04;;;;;;;1.60;1.30;;;;;;;;;;5073214;28;20259;-86
2023/01/14 12:55:34;;;;;;;1.33;1.23;;;;;;;;;;5073232;28;20207;-86
2023/01/14 12:58:06;;;;;;;1.23;1.17;;;;;;;;;;5073237;28;20223;-86
2023/01/14 13:00:36;;;;;;;0.93;0.90;;;;;;;;;;5073431;28;20202;-86
2023/01/14 13:03:06;;;;;;;1.53;1.43;;;;;;;;;;5073187;28;20314;-86
2023/01/14 13:05:37;;;;;;;1.67;1.57;;;;;;;;;;5073060;28;20220;-86
2023/01/14 13:08:06;;;;;;;2.40;2.00;;;;;;;;;;5072905;28;20200;-86
2023/01/14 13:10:36;;;;;;;3.53;2.03;;;;;;;;;;5074101;28;20234;-86
2023/01/14 13:13:06;;;;;;;4.20;1.87;;;;;;;;;;5072929;28;20232;-86
2023/01/14 13:15:35;;;;;;;1.73;1.40;;;;;;;;;;5073694;28;20261;-86
2023/01/14 13:18:05;;;;;;;2.13;1.50;;;;;;;;;;5073389;28;20212;-86
2023/01/14 13:20:52;;;;;;;2.43;1.50;;;;;;;;;;5074120;28;20204;-86
2023/01/14 13:23:47;;;;;;;3.10;1.63;;;;;;;;;;5072941;28;20221;-86
2023/01/14 13:26:19;;;;;;;3.60;2.00;;;;;;;;;;5073673;28;20230;-86
2023/01/14 13:29:19;;;;;;;5.03;1.93;;;;;;;;;;5073063;28;20192;-86
2023/01/14 13:31:48;;;;;;;2.73;1.60;;;;;;;;;;5073097;28;20202;-87
2023/01/14 13:34:36;;;;;;;5.63;2.17;;;;;;;;;;5073103;28;20196;-86
2023/01/14 13:37:22;;;;;;;5.83;1.93;;;;;;;;;;5074067;28;20287;-86
2023/01/14 13:39:53;;;;;;;3.90;1.83;;;;;;;;;;5072909;28;20197;-86
2023/01/14 13:42:27;;;;;;;3.10;1.10;;;;;;;;;;5072830;28;20214;-86
2023/01/14 13:44:58;;;;;;;4.37;2.50;;;;;;;;;;5072954;28;20194;-85
2023/01/14 13:47:30;;;;;;;5.23;1.83;;;;;;;;;;5072560;28;20196;-86
2023/01/14 13:50:03;;;;;;;6.00;2.30;;;;;;;;;;5072966;28;20240;-86
2023/01/14 13:52:33;;;;;;;3.33;1.73;;;;;;;;;;5072486;28;20205;-86
2023/01/14 13:55:03;;;;;;;5.07;1.87;;;;;;;;;;5072937;28;20196;-86
2023/01/14 13:57:36;;;;;;;2.70;1.77;;;;;;;;;;5073160;28;20235;-86
2023/01/14 14:00:28;;;;;;;2.80;1.77;;;;;;;;;;5072711;28;20203;-86
2023/01/14 14:02:57;;;;;;;6.30;2.37;;;;;;;;;;5075876;28;20220;-86
2023/01/14 14:05:30;;;;;;;3.43;2.00;;;;;;;;;;5076709;28;20374;-85
2023/01/14 14:08:00;;;;;;;4.63;2.30;;;;;;;;;;5076654;28;20204;-86
2023/01/14 14:10:30;;;;;;;8.10;2.70;;;;;;;;;;5077157;28;20201;-86
2023/01/14 14:15:51;;;;;;;7.30;1.97;;;;;;;;;;5076186;28;20233;-86
2023/01/14 14:18:23;;;;;;;5.67;2.37;;;;;;;;;;5076645;28;20208;-86
2023/01/14 14:20:53;;;;;;;7.07;2.80;;;;;;;;;;5076554;28;20193;-86
2023/01/14 14:23:23;;;;;;;5.00;2.57;;;;;;;;;;5076013;28;20210;-86
2023/01/14 14:25:51;;;;;;;3.90;1.60;;;;;;;;;;5077324;28;20201;-86
2023/01/14 14:28:21;;;;;;;4.30;2.10;;;;;;;;;;5076195;28;20210;-86
2023/01/14 14:30:52;;;;;;;2.90;2.17;;;;;;;;;;5076226;28;20296;-87
2023/01/14 14:33:31;;;;;;;4.97;1.73;;;;;;;;;;5075736;28;20186;-86
2023/01/14 14:35:59;;;;;;;2.63;1.67;;;;;;;;;;5077111;28;20202;-86
2023/01/14 14:38:28;;;;;;;3.90;2.00;;;;;;;;;;5075977;28;20201;-86
2023/01/14 14:40:57;;;;;;;8.83;3.03;;;;;;;;;;5077037;28;20201;-86
2023/01/14 14:43:26;;;;;;;3.03;2.00;;;;;;;;;;5075969;28;20217;-86
2023/01/14 14:46:03;;;;;;;6.27;2.67;;;;;;;;;;5075742;28;20229;-86
2023/01/14 14:48:33;;;;;;;7.80;3.60;;;;;;;;;;5075757;28;20208;-86
2023/01/14 14:51:01;;;;;;;6.63;2.57;;;;;;;;;;5076693;28;20232;-86
2023/01/14 14:53:30;;;;;;;3.87;2.10;;;;;;;;;;5077032;28;20217;-86
2023/01/14 14:56:00;;;;;;;2.60;1.37;;;;;;;;;;5075678;28;20300;-86
2023/01/14 14:58:29;;;;;;;2.00;1.50;;;;;;;;;;5075675;28;20208;-86
2023/01/14 15:00:59;;;;;;;1.93;1.33;;;;;;;;;;5075845;28;20273;-86
2023/01/14 15:03:31;;;;;;;2.83;1.93;;;;;;;;;;5075186;28;20239;-85
2023/01/14 15:06:01;;;;;;;6.30;1.70;;;;;;;;;;5075398;28;20229;-86
2023/01/14 15:08:32;;;;;;;6.90;3.03;;;;;;;;;;5076576;28;20190;-86
2023/01/14 15:11:01;;;;;;;11.43;3.40;;;;;;;;;;5075479;28;20209;-86
2023/01/14 15:13:30;;;;;;;4.67;2.50;;;;;;;;;;5073953;28;20307;-86
2023/01/14 15:16:03;;;;;;;1.20;0.97;;;;;;;;;;5075232;28;20197;-86
2023/01/14 15:18:34;;;;;;;6.43;2.10;;;;;;;;;;5074534;28;20219;-86
2023/01/14 15:21:04;;;;;;;3.57;1.43;;;;;;;;;;5074959;28;20204;-86
2023/01/14 15:23:33;;;;;;;9.17;2.33;;;;;;;;;;5074896;28;20210;-86
2023/01/14 15:26:02;;;;;;;7.93;2.30;;;;;;;;;;5074829;28;20193;-87
2023/01/14 15:28:31;;;;;;;10.93;2.77;;;;;;;;;;5076256;28;20196;-87
2023/01/14 15:31:00;;;;;;;10.30;2.97;;;;;;;;;;5074687;28;20266;-86
2023/01/14 15:33:31;;;;;;;3.33;2.50;;;;;;;;;;5074903;28;20303;-86
2023/01/14 15:36:02;;;;;;;8.90;3.17;;;;;;;;;;5074826;28;20292;-87
2023/01/14 15:38:30;;;;;;;6.03;1.80;;;;;;;;;;5076009;28;20200;-86